CET,Max TemperatureF,Mean TemperatureF,Min TemperatureF,Max Dew PointF,MeanDew PointF,Min DewpointF,Max Humidity, Mean Humidity, Min Humidity, Max Sea Level PressureIn, Mean Sea Level PressureIn, Min Sea Level PressureIn, Max VisibilityMiles, Mean VisibilityMiles, Min VisibilityMiles, Max Wind SpeedMPH, Mean Wind SpeedMPH, Max Gust SpeedMPH,PrecipitationIn, CloudCover, Events, WindDirDegrees
2012-11-1,41,37,33,39,36,32,100,96,93,29.47,29.30,29.24,6,3,0,12,6,,0.00,5,Fog-Rain,66
2012-11-2,46,40,35,39,34,32,100,78,57,29.65,29.57,29.36,6,6,6,13,7,24,0.00,3,Rain,191
2012-11-3,50,44,39,45,40,36,93,84,76,29.71,29.64,29.59,6,6,6,10,5,,0.00,4,Rain,197
2012-11-4,46,42,39,45,41,37,100,94,87,29.74,29.65,29.53,6,6,3,9,5,,0.00,3,Rain,125
2012-11-5,44,40,37,41,38,36,100,90,76,29.71,29.57,29.50,6,6,5,15,7,,0.00,5,Rain,242
2012-11-6,39,36,32,37,34,32,100,92,87,30.04,29.91,29.71,6,6,4,14,8,,0.00,5,Rain-Snow,250
2012-11-7,41,38,35,41,37,34,100,95,87,30.24,30.13,30.01,6,3,1,17,12,28,0.00,6,Rain,246
2012-11-8,41,40,39,39,37,36,93,88,81,30.21,30.09,30.04,6,6,6,14,10,23,0.00,7,Rain,243
2012-11-9,44,38,32,39,35,30,100,84,61,30.09,30.04,29.95,6,6,4,8,5,,0.00,6,Rain,222
2012-11-10,42,37,32,37,34,30,100,93,76,29.95,29.78,29.71,6,3,0,7,3,,0.00,3,Fog-Rain,51
2012-11-11,42,40,37,43,40,36,100,98,93,30.04,29.85,29.74,3,1,0,6,2,,0.00,6,Fog-Rain,63
2012-11-12,44,42,39,43,41,36,100,93,81,30.36,30.22,30.06,6,4,0,7,3,,0.00,5,Fog-Rain,238
2012-11-13,41,36,30,39,33,30,100,94,76,30.48,30.45,30.36,6,3,0,6,2,,0.00,5,Fog,61
2012-11-14,41,34,26,36,31,27,100,93,70,30.48,30.41,30.33,6,2,0,10,3,,0.00,5,Fog,97
2012-11-15,30,28,26,30,28,27,100,96,93,30.30,30.21,30.15,3,2,0,8,5,,0.00,8,Fog,86
2012-11-16,33,30,28,32,29,27,100,95,87,30.12,30.08,30.04,5,2,1,7,4,,0.00,8,Fog,131
2012-11-17,35,32,30,34,32,28,100,95,87,30.04,29.95,29.89,5,3,1,6,4,,0.00,8,,134
2012-11-18,35,32,30,36,33,28,100,97,93,30.01,29.92,29.89,4,1,0,4,2,,0.00,6,Fog,310
2012-11-19,46,38,30,41,35,30,100,95,76,30.09,30.06,30.01,6,2,0,7,3,,0.00,4,Fog,93
2012-11-20,41,39,37,39,39,36,100,98,93,30.12,30.10,30.06,4,2,0,8,4,,0.00,7,Fog,96
2012-11-21,41,39,37,39,39,36,100,97,93,30.12,30.06,30.04,6,3,2,12,6,,0.00,7,,119
2012-11-22,42,37,32,39,37,30,100,91,76,30.24,30.21,30.12,6,4,0,10,6,,0.00,6,Fog,256
2012-11-23,41,38,35,39,37,34,100,94,87,30.18,30.14,30.09,6,5,2,6,2,,0.00,7,,171
2012-11-24,46,40,35,39,37,36,100,90,71,30.15,30.10,30.04,6,3,0,6,3,,0.00,5,Fog,290
2012-11-25,48,42,37,43,38,34,100,87,71,30.04,29.98,29.92,6,4,0,9,4,,0.00,4,Fog-Rain,163
2012-11-26,46,38,30,41,36,28,100,88,76,30.01,29.85,29.74,6,4,1,12,4,,0.00,7,Rain,103
2012-11-27,41,39,37,41,39,37,100,97,93,29.74,29.69,29.65,6,2,0,7,2,,0.00,7,Fog-Rain,83
2012-11-28,41,40,39,41,40,37,100,99,93,29.65,29.52,29.39,6,2,0,9,4,,0.00,8,Fog-Rain,30
2012-11-29,39,34,30,37,31,28,100,97,93,29.47,29.29,29.21,6,3,0,13,9,21,0.00,6,Fog-Rain-Snow,313
2012-11-30,30,29,26,28,28,25,100,95,86,29.80,29.65,29.50,6,6,3,9,7,,0.00,5,Snow,251